sensor_id;sensor_type;location;lat;lon;timestamp;temperature;humidity
77039;DHT22;65970;50.476;4.840;2023-04-06T00:04:56;6.80;27.10
77039;DHT22;65970;50.476;4.840;2023-04-06T00:09:57;6.70;25.50
77039;DHT22;65970;50.476;4.840;2023-04-06T00:14:58;6.60;25.50
77039;DHT22;65970;50.476;4.840;2023-04-06T00:19:58;6.60;26.30
77039;DHT22;65970;50.476;4.840;2023-04-06T00:24:59;6.50;27.30
77039;DHT22;65970;50.476;4.840;2023-04-06T00:29:59;6.40;26.50
77039;DHT22;65970;50.476;4.840;2023-04-06T00:35:01;6.40;27.20
77039;DHT22;65970;50.476;4.840;2023-04-06T00:40:02;6.30;27.00
77039;DHT22;65970;50.476;4.840;2023-04-06T00:45:03;6.30;28.40
77039;DHT22;65970;50.476;4.840;2023-04-06T00:50:04;6.30;29.20
77039;DHT22;65970;50.476;4.840;2023-04-06T00:55:05;6.20;28.00
77039;DHT22;65970;50.476;4.840;2023-04-06T01:00:07;6.20;27.10
77039;DHT22;65970;50.476;4.840;2023-04-06T01:05:08;6.20;26.00
77039;DHT22;65970;50.476;4.840;2023-04-06T01:10:09;6.10;27.60
77039;DHT22;65970;50.476;4.840;2023-04-06T01:15:10;6.10;27.60
77039;DHT22;65970;50.476;4.840;2023-04-06T01:20:11;6.00;28.60
77039;DHT22;65970;50.476;4.840;2023-04-06T01:25:11;6.00;28.40
77039;DHT22;65970;50.476;4.840;2023-04-06T01:30:12;5.90;29.40
77039;DHT22;65970;50.476;4.840;2023-04-06T01:35:13;5.90;29.80
77039;DHT22;65970;50.476;4.840;2023-04-06T01:40:14;5.80;29.90
77039;DHT22;65970;50.476;4.840;2023-04-06T01:45:14;5.80;29.60
77039;DHT22;65970;50.476;4.840;2023-04-06T01:50:15;5.90;29.60
77039;DHT22;65970;50.476;4.840;2023-04-06T01:55:15;5.90;30.10
77039;DHT22;65970;50.476;4.840;2023-04-06T02:00:16;6.00;28.70
77039;DHT22;65970;50.476;4.840;2023-04-06T02:05:19;6.00;29.20
77039;DHT22;65970;50.476;4.840;2023-04-06T02:10:19;6.00;30.00
77039;DHT22;65970;50.476;4.840;2023-04-06T02:15:20;5.90;30.80
77039;DHT22;65970;50.476;4.840;2023-04-06T02:20:20;5.90;30.40
77039;DHT22;65970;50.476;4.840;2023-04-06T02:25:21;5.90;30.90
77039;DHT22;65970;50.476;4.840;2023-04-06T02:30:22;6.00;30.60
77039;DHT22;65970;50.476;4.840;2023-04-06T02:35:24;6.00;30.60
77039;DHT22;65970;50.476;4.840;2023-04-06T02:40:25;5.90;30.80
77039;DHT22;65970;50.476;4.840;2023-04-06T02:45:25;5.90;30.70
77039;DHT22;65970;50.476;4.840;2023-04-06T02:50:26;5.80;30.50
77039;DHT22;65970;50.476;4.840;2023-04-06T02:55:26;5.90;30.00
77039;DHT22;65970;50.476;4.840;2023-04-06T03:00:27;5.90;31.70
77039;DHT22;65970;50.476;4.840;2023-04-06T03:05:27;5.90;31.40
77039;DHT22;65970;50.476;4.840;2023-04-06T03:10:28;6.00;30.00
77039;DHT22;65970;50.476;4.840;2023-04-06T03:15:28;5.90;30.00
77039;DHT22;65970;50.476;4.840;2023-04-06T03:20:29;6.00;32.30
77039;DHT22;65970;50.476;4.840;2023-04-06T03:25:29;6.00;31.50
77039;DHT22;65970;50.476;4.840;2023-04-06T03:30:30;6.00;30.10
77039;DHT22;65970;50.476;4.840;2023-04-06T03:35:31;6.10;31.00
77039;DHT22;65970;50.476;4.840;2023-04-06T03:40:31;6.00;30.00
77039;DHT22;65970;50.476;4.840;2023-04-06T03:45:32;6.00;30.30
77039;DHT22;65970;50.476;4.840;2023-04-06T03:50:32;6.10;29.10
77039;DHT22;65970;50.476;4.840;2023-04-06T03:55:33;6.10;28.60
77039;DHT22;65970;50.476;4.840;2023-04-06T04:00:33;6.20;28.40
77039;DHT22;65970;50.476;4.840;2023-04-06T04:05:34;6.20;29.70
77039;DHT22;65970;50.476;4.840;2023-04-06T04:10:34;6.20;29.70
77039;DHT22;65970;50.476;4.840;2023-04-06T04:15:35;6.20;29.00
77039;DHT22;65970;50.476;4.840;2023-04-06T04:20:35;6.20;29.30
77039;DHT22;65970;50.476;4.840;2023-04-06T04:25:36;6.20;29.80
77039;DHT22;65970;50.476;4.840;2023-04-06T04:30:37;6.10;29.70
77039;DHT22;65970;50.476;4.840;2023-04-06T04:35:37;6.10;29.30
77039;DHT22;65970;50.476;4.840;2023-04-06T04:40:38;6.10;29.60
77039;DHT22;65970;50.476;4.840;2023-04-06T04:45:38;6.20;29.80
77039;DHT22;65970;50.476;4.840;2023-04-06T04:50:39;6.20;30.60
77039;DHT22;65970;50.476;4.840;2023-04-06T04:55:39;6.30;29.70
77039;DHT22;65970;50.476;4.840;2023-04-06T05:00:40;6.30;30.00
77039;DHT22;65970;50.476;4.840;2023-04-06T05:05:40;6.20;30.30
77039;DHT22;65970;50.476;4.840;2023-04-06T05:21:01;6.20;30.80
77039;DHT22;65970;50.476;4.840;2023-04-06T05:26:01;6.20;30.90
77039;DHT22;65970;50.476;4.840;2023-04-06T05:31:02;6.20;30.90
77039;DHT22;65970;50.476;4.840;2023-04-06T05:36:03;6.20;30.50
77039;DHT22;65970;50.476;4.840;2023-04-06T05:41:03;6.20;30.70
77039;DHT22;65970;50.476;4.840;2023-04-06T05:46:04;6.30;30.20
77039;DHT22;65970;50.476;4.840;2023-04-06T05:51:05;6.40;30.60
77039;DHT22;65970;50.476;4.840;2023-04-06T05:56:05;6.40;30.70
77039;DHT22;65970;50.476;4.840;2023-04-06T06:01:06;6.60;29.00
77039;DHT22;65970;50.476;4.840;2023-04-06T06:06:06;6.70;34.40
77039;DHT22;65970;50.476;4.840;2023-04-06T06:11:07;6.80;34.60
77039;DHT22;65970;50.476;4.840;2023-04-06T06:16:08;6.80;29.10
77039;DHT22;65970;50.476;4.840;2023-04-06T06:21:08;6.90;29.90
77039;DHT22;65970;50.476;4.840;2023-04-06T06:26:09;7.00;31.20
77039;DHT22;65970;50.476;4.840;2023-04-06T06:31:09;7.10;33.60
77039;DHT22;65970;50.476;4.840;2023-04-06T06:36:10;7.20;35.60
77039;DHT22;65970;50.476;4.840;2023-04-06T06:41:10;7.20;32.90
77039;DHT22;65970;50.476;4.840;2023-04-06T06:46:11;7.30;32.90
77039;DHT22;65970;50.476;4.840;2023-04-06T06:51:12;7.30;33.20
77039;DHT22;65970;50.476;4.840;2023-04-06T06:56:12;7.40;30.50
77039;DHT22;65970;50.476;4.840;2023-04-06T07:01:13;7.40;32.90
77039;DHT22;65970;50.476;4.840;2023-04-06T07:06:13;7.40;33.40
77039;DHT22;65970;50.476;4.840;2023-04-06T07:11:14;7.50;31.40
77039;DHT22;65970;50.476;4.840;2023-04-06T07:16:14;7.60;32.20
77039;DHT22;65970;50.476;4.840;2023-04-06T07:21:15;7.60;31.40
77039;DHT22;65970;50.476;4.840;2023-04-06T07:26:15;7.70;34.90
77039;DHT22;65970;50.476;4.840;2023-04-06T07:31:16;7.80;32.00
77039;DHT22;65970;50.476;4.840;2023-04-06T07:36:17;7.80;33.00
77039;DHT22;65970;50.476;4.840;2023-04-06T07:41:17;7.90;34.80
77039;DHT22;65970;50.476;4.840;2023-04-06T07:46:18;8.00;33.50
77039;DHT22;65970;50.476;4.840;2023-04-06T07:51:18;8.00;33.00
77039;DHT22;65970;50.476;4.840;2023-04-06T07:56:19;8.00;33.20
77039;DHT22;65970;50.476;4.840;2023-04-06T08:01:19;8.10;34.70
77039;DHT22;65970;50.476;4.840;2023-04-06T08:06:20;8.10;35.80
77039;DHT22;65970;50.476;4.840;2023-04-06T08:11:20;8.10;39.50
77039;DHT22;65970;50.476;4.840;2023-04-06T08:16:21;8.20;42.30
77039;DHT22;65970;50.476;4.840;2023-04-06T08:21:22;8.10;45.80
77039;DHT22;65970;50.476;4.840;2023-04-06T08:26:22;8.10;46.00
77039;DHT22;65970;50.476;4.840;2023-04-06T08:31:23;8.10;48.00
77039;DHT22;65970;50.476;4.840;2023-04-06T08:36:23;8.00;48.60
77039;DHT22;65970;50.476;4.840;2023-04-06T08:41:24;8.00;52.80
77039;DHT22;65970;50.476;4.840;2023-04-06T08:46:25;8.00;54.70
77039;DHT22;65970;50.476;4.840;2023-04-06T08:51:27;8.00;56.00
77039;DHT22;65970;50.476;4.840;2023-04-06T08:56:28;8.10;60.00
77039;DHT22;65970;50.476;4.840;2023-04-06T09:01:29;8.10;61.40
77039;DHT22;65970;50.476;4.840;2023-04-06T09:06:31;8.20;61.10
77039;DHT22;65970;50.476;4.840;2023-04-06T09:11:43;8.20;62.60
77039;DHT22;65970;50.476;4.840;2023-04-06T09:16:45;8.10;63.40
77039;DHT22;65970;50.476;4.840;2023-04-06T09:21:45;8.10;65.30
77039;DHT22;65970;50.476;4.840;2023-04-06T09:26:46;8.20;66.60
77039;DHT22;65970;50.476;4.840;2023-04-06T09:31:47;8.20;65.20
77039;DHT22;65970;50.476;4.840;2023-04-06T09:36:48;8.10;66.40
77039;DHT22;65970;50.476;4.840;2023-04-06T09:41:50;8.20;67.90
77039;DHT22;65970;50.476;4.840;2023-04-06T09:46:53;8.30;70.40
77039;DHT22;65970;50.476;4.840;2023-04-06T09:51:58;8.30;73.60
77039;DHT22;65970;50.476;4.840;2023-04-06T09:57:26;8.30;70.70
77039;DHT22;65970;50.476;4.840;2023-04-06T10:02:45;8.30;69.20
77039;DHT22;65970;50.476;4.840;2023-04-06T10:07:48;8.30;69.70
77039;DHT22;65970;50.476;4.840;2023-04-06T10:12:49;8.30;73.20
77039;DHT22;65970;50.476;4.840;2023-04-06T10:17:49;8.30;74.00
77039;DHT22;65970;50.476;4.840;2023-04-06T10:23:05;8.30;73.10
77039;DHT22;65970;50.476;4.840;2023-04-06T10:28:10;8.30;77.10
77039;DHT22;65970;50.476;4.840;2023-04-06T10:33:19;8.30;76.40
77039;DHT22;65970;50.476;4.840;2023-04-06T10:38:19;8.30;74.20
77039;DHT22;65970;50.476;4.840;2023-04-06T10:43:21;8.30;75.30
77039;DHT22;65970;50.476;4.840;2023-04-06T10:48:22;8.30;80.50
77039;DHT22;65970;50.476;4.840;2023-04-06T10:53:24;8.30;78.10
77039;DHT22;65970;50.476;4.840;2023-04-06T10:58:26;8.30;81.50
77039;DHT22;65970;50.476;4.840;2023-04-06T11:03:26;8.20;78.00
77039;DHT22;65970;50.476;4.840;2023-04-06T11:08:31;8.20;81.90
77039;DHT22;65970;50.476;4.840;2023-04-06T11:13:42;8.20;80.70
77039;DHT22;65970;50.476;4.840;2023-04-06T11:18:56;8.20;84.10
77039;DHT22;65970;50.476;4.840;2023-04-06T11:24:26;8.10;85.70
77039;DHT22;65970;50.476;4.840;2023-04-06T11:29:29;8.20;92.70
77039;DHT22;65970;50.476;4.840;2023-04-06T11:34:35;8.20;96.50
77039;DHT22;65970;50.476;4.840;2023-04-06T11:39:52;8.20;99.90
77039;DHT22;65970;50.476;4.840;2023-04-06T11:44:58;8.30;99.90
77039;DHT22;65970;50.476;4.840;2023-04-06T11:50:10;8.30;99.90
77039;DHT22;65970;50.476;4.840;2023-04-06T11:55:17;8.20;99.90
77039;DHT22;65970;50.476;4.840;2023-04-06T12:00:19;8.30;99.90
77039;DHT22;65970;50.476;4.840;2023-04-06T12:05:20;8.30;99.90
77039;DHT22;65970;50.476;4.840;2023-04-06T12:10:21;8.30;99.90
77039;DHT22;65970;50.476;4.840;2023-04-06T12:15:21;8.30;99.90
77039;DHT22;65970;50.476;4.840;2023-04-06T12:20:22;8.30;99.90
77039;DHT22;65970;50.476;4.840;2023-04-06T12:25:22;8.30;99.90
77039;DHT22;65970;50.476;4.840;2023-04-06T12:30:23;8.30;99.90
77039;DHT22;65970;50.476;4.840;2023-04-06T12:35:24;8.30;99.90
77039;DHT22;65970;50.476;4.840;2023-04-06T12:40:24;8.20;99.90
77039;DHT22;65970;50.476;4.840;2023-04-06T12:45:25;8.30;99.90
77039;DHT22;65970;50.476;4.840;2023-04-06T12:50:25;8.30;99.90
77039;DHT22;65970;50.476;4.840;2023-04-06T12:55:27;8.40;99.90
77039;DHT22;65970;50.476;4.840;2023-04-06T13:00:29;8.40;99.90
77039;DHT22;65970;50.476;4.840;2023-04-06T13:05:30;8.40;99.90
77039;DHT22;65970;50.476;4.840;2023-04-06T13:10:30;8.50;99.90
77039;DHT22;65970;50.476;4.840;2023-04-06T13:15:31;8.50;99.90
77039;DHT22;65970;50.476;4.840;2023-04-06T13:20:32;8.50;99.90
77039;DHT22;65970;50.476;4.840;2023-04-06T13:25:32;8.60;99.90
77039;DHT22;65970;50.476;4.840;2023-04-06T13:30:33;8.60;99.90
77039;DHT22;65970;50.476;4.840;2023-04-06T13:35:34;8.60;99.90
77039;DHT22;65970;50.476;4.840;2023-04-06T13:40:34;8.60;99.90
77039;DHT22;65970;50.476;4.840;2023-04-06T13:45:35;8.60;99.90
77039;DHT22;65970;50.476;4.840;2023-04-06T13:50:35;8.60;99.90
77039;DHT22;65970;50.476;4.840;2023-04-06T13:55:36;8.60;99.90
77039;DHT22;65970;50.476;4.840;2023-04-06T14:00:36;8.70;99.90
77039;DHT22;65970;50.476;4.840;2023-04-06T14:05:37;8.70;99.90
77039;DHT22;65970;50.476;4.840;2023-04-06T14:10:39;8.70;99.90
77039;DHT22;65970;50.476;4.840;2023-04-06T14:15:40;8.80;99.90
77039;DHT22;65970;50.476;4.840;2023-04-06T14:20:40;8.80;99.90
77039;DHT22;65970;50.476;4.840;2023-04-06T14:25:41;8.80;99.90
77039;DHT22;65970;50.476;4.840;2023-04-06T14:30:41;8.80;99.90
77039;DHT22;65970;50.476;4.840;2023-04-06T14:35:42;8.80;99.90
77039;DHT22;65970;50.476;4.840;2023-04-06T14:40:43;8.80;99.90
77039;DHT22;65970;50.476;4.840;2023-04-06T14:45:43;8.80;99.90
77039;DHT22;65970;50.476;4.840;2023-04-06T14:50:54;8.80;99.90
77039;DHT22;65970;50.476;4.840;2023-04-06T14:55:55;8.90;99.90
77039;DHT22;65970;50.476;4.840;2023-04-06T15:01:00;8.90;99.90
77039;DHT22;65970;50.476;4.840;2023-04-06T15:06:01;8.90;99.90
77039;DHT22;65970;50.476;4.840;2023-04-06T15:11:01;9.00;99.90
77039;DHT22;65970;50.476;4.840;2023-04-06T15:16:02;9.10;99.90
77039;DHT22;65970;50.476;4.840;2023-04-06T15:21:02;9.10;99.90
77039;DHT22;65970;50.476;4.840;2023-04-06T15:26:03;9.20;99.90
77039;DHT22;65970;50.476;4.840;2023-04-06T15:31:13;9.20;99.90
77039;DHT22;65970;50.476;4.840;2023-04-06T15:36:29;9.30;99.90
77039;DHT22;65970;50.476;4.840;2023-04-06T15:41:30;9.40;99.90
77039;DHT22;65970;50.476;4.840;2023-04-06T15:46:30;9.50;99.90
77039;DHT22;65970;50.476;4.840;2023-04-06T15:51:31;9.50;99.90
77039;DHT22;65970;50.476;4.840;2023-04-06T15:56:32;9.60;99.90
77039;DHT22;65970;50.476;4.840;2023-04-06T16:01:32;9.60;99.90
77039;DHT22;65970;50.476;4.840;2023-04-06T16:06:34;9.60;99.90
77039;DHT22;65970;50.476;4.840;2023-04-06T16:11:34;9.50;99.90
77039;DHT22;65970;50.476;4.840;2023-04-06T16:16:35;9.50;99.90
77039;DHT22;65970;50.476;4.840;2023-04-06T16:21:35;9.60;99.90
77039;DHT22;65970;50.476;4.840;2023-04-06T16:26:36;9.60;99.90
77039;DHT22;65970;50.476;4.840;2023-04-06T16:31:37;9.60;99.90
77039;DHT22;65970;50.476;4.840;2023-04-06T16:36:37;9.60;99.90
77039;DHT22;65970;50.476;4.840;2023-04-06T16:41:38;9.70;99.90
77039;DHT22;65970;50.476;4.840;2023-04-06T16:46:38;9.70;99.90
77039;DHT22;65970;50.476;4.840;2023-04-06T16:51:40;9.80;99.90
77039;DHT22;65970;50.476;4.840;2023-04-06T16:56:40;9.90;99.90
77039;DHT22;65970;50.476;4.840;2023-04-06T17:01:41;9.90;99.90
77039;DHT22;65970;50.476;4.840;2023-04-06T17:06:41;9.90;99.90
77039;DHT22;65970;50.476;4.840;2023-04-06T17:11:42;9.90;99.90
77039;DHT22;65970;50.476;4.840;2023-04-06T17:16:43;10.00;99.90
77039;DHT22;65970;50.476;4.840;2023-04-06T17:21:43;10.00;99.90
77039;DHT22;65970;50.476;4.840;2023-04-06T17:26:44;10.00;99.90
77039;DHT22;65970;50.476;4.840;2023-04-06T17:31:44;10.00;99.90
77039;DHT22;65970;50.476;4.840;2023-04-06T17:36:45;10.00;99.90
77039;DHT22;65970;50.476;4.840;2023-04-06T17:41:45;10.00;99.90
77039;DHT22;65970;50.476;4.840;2023-04-06T17:46:46;10.00;99.90
77039;DHT22;65970;50.476;4.840;2023-04-06T17:51:47;10.00;99.90
77039;DHT22;65970;50.476;4.840;2023-04-06T17:56:48;10.10;99.90
77039;DHT22;65970;50.476;4.840;2023-04-06T18:01:48;10.10;99.90
77039;DHT22;65970;50.476;4.840;2023-04-06T18:06:49;10.10;99.90
77039;DHT22;65970;50.476;4.840;2023-04-06T18:11:49;10.10;99.90
77039;DHT22;65970;50.476;4.840;2023-04-06T18:16:50;10.10;99.90
77039;DHT22;65970;50.476;4.840;2023-04-06T18:21:50;10.10;99.90
77039;DHT22;65970;50.476;4.840;2023-04-06T18:26:51;10.10;99.90
77039;DHT22;65970;50.476;4.840;2023-04-06T18:31:52;10.20;99.90
77039;DHT22;65970;50.476;4.840;2023-04-06T18:36:52;10.10;99.90
77039;DHT22;65970;50.476;4.840;2023-04-06T18:41:53;10.10;99.90
77039;DHT22;65970;50.476;4.840;2023-04-06T18:46:53;10.20;99.90
77039;DHT22;65970;50.476;4.840;2023-04-06T18:51:54;10.20;99.90
77039;DHT22;65970;50.476;4.840;2023-04-06T18:56:54;10.20;99.90
77039;DHT22;65970;50.476;4.840;2023-04-06T19:01:55;10.20;99.90
77039;DHT22;65970;50.476;4.840;2023-04-06T19:06:56;10.20;99.90
77039;DHT22;65970;50.476;4.840;2023-04-06T19:11:56;10.20;99.90
77039;DHT22;65970;50.476;4.840;2023-04-06T19:16:57;10.20;99.90
77039;DHT22;65970;50.476;4.840;2023-04-06T19:21:57;10.10;99.90
77039;DHT22;65970;50.476;4.840;2023-04-06T19:26:58;10.10;99.90
77039;DHT22;65970;50.476;4.840;2023-04-06T19:31:58;10.00;99.90
77039;DHT22;65970;50.476;4.840;2023-04-06T19:36:59;10.00;99.90
77039;DHT22;65970;50.476;4.840;2023-04-06T19:42:01;10.00;99.90
77039;DHT22;65970;50.476;4.840;2023-04-06T19:47:02;10.00;99.90
77039;DHT22;65970;50.476;4.840;2023-04-06T19:52:05;9.90;99.90
77039;DHT22;65970;50.476;4.840;2023-04-06T19:57:06;9.90;99.90
77039;DHT22;65970;50.476;4.840;2023-04-06T20:02:06;9.90;99.90
77039;DHT22;65970;50.476;4.840;2023-04-06T20:07:07;9.80;99.90
77039;DHT22;65970;50.476;4.840;2023-04-06T20:12:08;9.80;99.90
77039;DHT22;65970;50.476;4.840;2023-04-06T20:17:08;9.80;99.90
77039;DHT22;65970;50.476;4.840;2023-04-06T20:22:09;9.80;99.90
77039;DHT22;65970;50.476;4.840;2023-04-06T20:27:09;9.70;99.90
77039;DHT22;65970;50.476;4.840;2023-04-06T20:32:10;9.70;99.90
77039;DHT22;65970;50.476;4.840;2023-04-06T20:37:11;9.70;99.90
77039;DHT22;65970;50.476;4.840;2023-04-06T20:42:11;9.70;99.90
77039;DHT22;65970;50.476;4.840;2023-04-06T20:47:12;9.70;99.90
77039;DHT22;65970;50.476;4.840;2023-04-06T20:52:12;9.70;99.90
77039;DHT22;65970;50.476;4.840;2023-04-06T20:57:13;9.70;99.90
77039;DHT22;65970;50.476;4.840;2023-04-06T21:02:14;9.70;99.90
77039;DHT22;65970;50.476;4.840;2023-04-06T21:07:14;9.70;99.90
77039;DHT22;65970;50.476;4.840;2023-04-06T21:12:15;9.70;99.90
77039;DHT22;65970;50.476;4.840;2023-04-06T21:17:15;9.70;99.90
77039;DHT22;65970;50.476;4.840;2023-04-06T21:22:16;9.70;99.90
77039;DHT22;65970;50.476;4.840;2023-04-06T21:27:16;9.70;99.90
77039;DHT22;65970;50.476;4.840;2023-04-06T21:32:17;9.70;99.90
77039;DHT22;65970;50.476;4.840;2023-04-06T21:37:18;9.70;99.90
77039;DHT22;65970;50.476;4.840;2023-04-06T21:42:18;9.70;99.90
77039;DHT22;65970;50.476;4.840;2023-04-06T21:47:19;9.70;99.90
77039;DHT22;65970;50.476;4.840;2023-04-06T21:52:19;9.70;99.90
77039;DHT22;65970;50.476;4.840;2023-04-06T21:57:20;9.70;99.90
77039;DHT22;65970;50.476;4.840;2023-04-06T22:02:20;9.70;99.90
77039;DHT22;65970;50.476;4.840;2023-04-06T22:07:21;9.70;99.90
77039;DHT22;65970;50.476;4.840;2023-04-06T22:12:21;9.70;99.90
77039;DHT22;65970;50.476;4.840;2023-04-06T22:17:22;9.80;99.90
77039;DHT22;65970;50.476;4.840;2023-04-06T22:22:23;9.80;99.90
77039;DHT22;65970;50.476;4.840;2023-04-06T22:27:24;9.80;99.90
77039;DHT22;65970;50.476;4.840;2023-04-06T22:32:24;9.70;99.90
77039;DHT22;65970;50.476;4.840;2023-04-06T22:37:25;9.70;99.90
77039;DHT22;65970;50.476;4.840;2023-04-06T22:42:25;9.70;99.90
77039;DHT22;65970;50.476;4.840;2023-04-06T22:47:26;9.80;99.90
77039;DHT22;65970;50.476;4.840;2023-04-06T22:52:27;9.70;99.90
77039;DHT22;65970;50.476;4.840;2023-04-06T22:57:27;9.70;99.90
77039;DHT22;65970;50.476;4.840;2023-04-06T23:02:28;9.70;99.90
77039;DHT22;65970;50.476;4.840;2023-04-06T23:07:28;9.70;99.90
77039;DHT22;65970;50.476;4.840;2023-04-06T23:12:29;9.70;99.90
77039;DHT22;65970;50.476;4.840;2023-04-06T23:17:29;9.70;99.90
77039;DHT22;65970;50.476;4.840;2023-04-06T23:22:30;9.70;99.90
77039;DHT22;65970;50.476;4.840;2023-04-06T23:27:30;9.70;99.90
77039;DHT22;65970;50.476;4.840;2023-04-06T23:32:31;9.70;99.90
77039;DHT22;65970;50.476;4.840;2023-04-06T23:37:32;9.60;99.90
77039;DHT22;65970;50.476;4.840;2023-04-06T23:42:32;9.60;99.90
77039;DHT22;65970;50.476;4.840;2023-04-06T23:47:33;9.60;99.90
77039;DHT22;65970;50.476;4.840;2023-04-06T23:52:33;9.60;99.90
77039;DHT22;65970;50.476;4.840;2023-04-06T23:57:34;9.60;99.90
